sensor_id;sensor_type;location;lat;lon;timestamp;temperature;humidity
51035;DHT22;37062;52.546;13.230;2023-09-18T00:00:47;22.60;99.90
51035;DHT22;37062;52.546;13.230;2023-09-18T00:03:17;22.60;99.90
51035;DHT22;37062;52.546;13.230;2023-09-18T00:05:47;22.60;99.90
51035;DHT22;37062;52.546;13.230;2023-09-18T00:08:16;22.60;99.90
51035;DHT22;37062;52.546;13.230;2023-09-18T00:10:48;22.60;99.90
51035;DHT22;37062;52.546;13.230;2023-09-18T00:13:17;22.50;99.90
51035;DHT22;37062;52.546;13.230;2023-09-18T00:15:46;22.50;99.90
51035;DHT22;37062;52.546;13.230;2023-09-18T00:18:16;22.50;99.90
51035;DHT22;37062;52.546;13.230;2023-09-18T00:20:44;22.40;99.90
51035;DHT22;37062;52.546;13.230;2023-09-18T00:23:16;22.40;99.90
51035;DHT22;37062;52.546;13.230;2023-09-18T00:25:44;22.40;99.90
51035;DHT22;37062;52.546;13.230;2023-09-18T00:28:13;22.40;99.90
51035;DHT22;37062;52.546;13.230;2023-09-18T00:30:46;22.40;99.90
51035;DHT22;37062;52.546;13.230;2023-09-18T00:33:15;22.40;99.90
51035;DHT22;37062;52.546;13.230;2023-09-18T00:35:47;22.40;99.90
51035;DHT22;37062;52.546;13.230;2023-09-18T00:38:17;22.40;99.90
51035;DHT22;37062;52.546;13.230;2023-09-18T00:40:45;22.40;99.90
51035;DHT22;37062;52.546;13.230;2023-09-18T00:43:15;22.40;99.90
51035;DHT22;37062;52.546;13.230;2023-09-18T00:45:46;22.40;99.90
51035;DHT22;37062;52.546;13.230;2023-09-18T00:48:16;22.40;99.90
51035;DHT22;37062;52.546;13.230;2023-09-18T00:50:46;22.40;99.90
51035;DHT22;37062;52.546;13.230;2023-09-18T00:53:17;22.40;99.90
51035;DHT22;37062;52.546;13.230;2023-09-18T00:55:47;22.30;99.90
51035;DHT22;37062;52.546;13.230;2023-09-18T00:58:19;22.20;99.90
51035;DHT22;37062;52.546;13.230;2023-09-18T01:00:47;22.20;99.90
51035;DHT22;37062;52.546;13.230;2023-09-18T01:03:19;22.20;99.90
51035;DHT22;37062;52.546;13.230;2023-09-18T01:05:49;22.20;99.90
51035;DHT22;37062;52.546;13.230;2023-09-18T01:08:19;22.20;99.90
51035;DHT22;37062;52.546;13.230;2023-09-18T01:10:53;22.20;99.90
51035;DHT22;37062;52.546;13.230;2023-09-18T01:13:33;22.20;99.90
51035;DHT22;37062;52.546;13.230;2023-09-18T01:16:08;22.20;99.90
51035;DHT22;37062;52.546;13.230;2023-09-18T01:18:37;22.10;99.90
51035;DHT22;37062;52.546;13.230;2023-09-18T01:21:06;22.10;99.90
51035;DHT22;37062;52.546;13.230;2023-09-18T01:23:35;22.10;99.90
51035;DHT22;37062;52.546;13.230;2023-09-18T01:26:03;22.10;99.90
51035;DHT22;37062;52.546;13.230;2023-09-18T01:28:32;22.10;99.90
51035;DHT22;37062;52.546;13.230;2023-09-18T01:31:00;22.10;99.90
51035;DHT22;37062;52.546;13.230;2023-09-18T01:33:29;22.00;99.90
51035;DHT22;37062;52.546;13.230;2023-09-18T01:36:00;22.00;99.90
51035;DHT22;37062;52.546;13.230;2023-09-18T01:38:29;22.00;99.90
51035;DHT22;37062;52.546;13.230;2023-09-18T01:40:59;21.90;99.90
51035;DHT22;37062;52.546;13.230;2023-09-18T01:43:29;21.90;99.90
51035;DHT22;37062;52.546;13.230;2023-09-18T01:45:57;21.90;99.90
51035;DHT22;37062;52.546;13.230;2023-09-18T01:48:26;21.90;99.90
51035;DHT22;37062;52.546;13.230;2023-09-18T01:50:54;21.90;99.90
51035;DHT22;37062;52.546;13.230;2023-09-18T01:53:23;21.90;99.90
51035;DHT22;37062;52.546;13.230;2023-09-18T01:55:52;21.80;99.90
51035;DHT22;37062;52.546;13.230;2023-09-18T01:58:22;21.80;99.90
51035;DHT22;37062;52.546;13.230;2023-09-18T02:00:51;21.80;99.90
51035;DHT22;37062;52.546;13.230;2023-09-18T02:03:19;21.70;99.90
51035;DHT22;37062;52.546;13.230;2023-09-18T02:06:08;21.70;99.90
51035;DHT22;37062;52.546;13.230;2023-09-18T02:08:36;21.60;99.90
51035;DHT22;37062;52.546;13.230;2023-09-18T02:11:05;21.60;99.90
51035;DHT22;37062;52.546;13.230;2023-09-18T02:13:35;21.60;99.90
51035;DHT22;37062;52.546;13.230;2023-09-18T02:16:03;21.60;99.90
51035;DHT22;37062;52.546;13.230;2023-09-18T02:18:32;21.60;99.90
51035;DHT22;37062;52.546;13.230;2023-09-18T02:21:00;21.60;99.90
51035;DHT22;37062;52.546;13.230;2023-09-18T02:23:28;21.60;99.90
51035;DHT22;37062;52.546;13.230;2023-09-18T02:25:56;21.50;99.90
51035;DHT22;37062;52.546;13.230;2023-09-18T02:28:25;21.50;99.90
51035;DHT22;37062;52.546;13.230;2023-09-18T02:30:55;21.50;99.90
51035;DHT22;37062;52.546;13.230;2023-09-18T02:33:23;21.50;99.90
51035;DHT22;37062;52.546;13.230;2023-09-18T02:35:51;21.40;99.90
51035;DHT22;37062;52.546;13.230;2023-09-18T02:38:19;21.40;99.90
51035;DHT22;37062;52.546;13.230;2023-09-18T02:40:48;21.40;99.90
51035;DHT22;37062;52.546;13.230;2023-09-18T02:43:16;21.30;99.90
51035;DHT22;37062;52.546;13.230;2023-09-18T02:45:44;21.30;99.90
51035;DHT22;37062;52.546;13.230;2023-09-18T02:48:14;21.30;99.90
51035;DHT22;37062;52.546;13.230;2023-09-18T02:50:43;21.20;99.90
51035;DHT22;37062;52.546;13.230;2023-09-18T02:53:17;21.20;99.90
51035;DHT22;37062;52.546;13.230;2023-09-18T02:55:47;21.20;99.90
51035;DHT22;37062;52.546;13.230;2023-09-18T02:58:15;21.20;99.90
51035;DHT22;37062;52.546;13.230;2023-09-18T03:00:43;21.20;99.90
51035;DHT22;37062;52.546;13.230;2023-09-18T03:03:14;21.20;99.90
51035;DHT22;37062;52.546;13.230;2023-09-18T03:05:43;21.20;99.90
51035;DHT22;37062;52.546;13.230;2023-09-18T03:08:13;21.20;99.90
51035;DHT22;37062;52.546;13.230;2023-09-18T03:10:43;21.20;99.90
51035;DHT22;37062;52.546;13.230;2023-09-18T03:13:14;21.10;99.90
51035;DHT22;37062;52.546;13.230;2023-09-18T03:15:46;21.10;99.90
51035;DHT22;37062;52.546;13.230;2023-09-18T03:18:16;21.00;99.90
51035;DHT22;37062;52.546;13.230;2023-09-18T03:20:45;21.00;99.90
51035;DHT22;37062;52.546;13.230;2023-09-18T03:23:13;21.00;99.90
51035;DHT22;37062;52.546;13.230;2023-09-18T03:25:42;21.00;99.90
51035;DHT22;37062;52.546;13.230;2023-09-18T03:28:18;21.00;99.90
51035;DHT22;37062;52.546;13.230;2023-09-18T03:30:48;20.90;99.90
51035;DHT22;37062;52.546;13.230;2023-09-18T03:33:20;20.90;99.90
51035;DHT22;37062;52.546;13.230;2023-09-18T03:35:49;20.90;99.90
51035;DHT22;37062;52.546;13.230;2023-09-18T03:38:22;20.90;99.90
51035;DHT22;37062;52.546;13.230;2023-09-18T03:40:52;20.90;99.90
51035;DHT22;37062;52.546;13.230;2023-09-18T03:43:20;20.90;99.90
51035;DHT22;37062;52.546;13.230;2023-09-18T03:45:49;20.90;99.90
51035;DHT22;37062;52.546;13.230;2023-09-18T03:48:20;20.90;99.90
51035;DHT22;37062;52.546;13.230;2023-09-18T03:50:49;20.90;99.90
51035;DHT22;37062;52.546;13.230;2023-09-18T03:53:17;20.90;99.90
51035;DHT22;37062;52.546;13.230;2023-09-18T03:55:45;20.90;99.90
51035;DHT22;37062;52.546;13.230;2023-09-18T03:58:13;20.80;99.90
51035;DHT22;37062;52.546;13.230;2023-09-18T04:00:42;20.80;99.90
51035;DHT22;37062;52.546;13.230;2023-09-18T04:03:10;20.80;99.90
51035;DHT22;37062;52.546;13.230;2023-09-18T04:05:39;20.90;99.90
51035;DHT22;37062;52.546;13.230;2023-09-18T04:08:08;20.90;99.90
51035;DHT22;37062;52.546;13.230;2023-09-18T04:10:36;20.90;99.90
51035;DHT22;37062;52.546;13.230;2023-09-18T04:13:05;20.90;99.90
51035;DHT22;37062;52.546;13.230;2023-09-18T04:15:33;20.80;99.90
51035;DHT22;37062;52.546;13.230;2023-09-18T04:18:05;20.80;99.90
51035;DHT22;37062;52.546;13.230;2023-09-18T04:20:33;20.80;99.90
51035;DHT22;37062;52.546;13.230;2023-09-18T04:23:21;20.80;99.90
51035;DHT22;37062;52.546;13.230;2023-09-18T04:25:52;20.80;99.90
51035;DHT22;37062;52.546;13.230;2023-09-18T04:28:22;20.80;99.90
51035;DHT22;37062;52.546;13.230;2023-09-18T04:30:50;20.80;99.90
51035;DHT22;37062;52.546;13.230;2023-09-18T04:33:20;20.80;99.90
51035;DHT22;37062;52.546;13.230;2023-09-18T04:35:49;20.70;99.90
51035;DHT22;37062;52.546;13.230;2023-09-18T04:38:19;20.70;99.90
51035;DHT22;37062;52.546;13.230;2023-09-18T04:40:47;20.70;99.90
51035;DHT22;37062;52.546;13.230;2023-09-18T04:43:15;20.70;99.90
51035;DHT22;37062;52.546;13.230;2023-09-18T04:45:44;20.70;99.90
51035;DHT22;37062;52.546;13.230;2023-09-18T04:48:15;20.70;99.90
51035;DHT22;37062;52.546;13.230;2023-09-18T04:50:43;20.60;99.90
51035;DHT22;37062;52.546;13.230;2023-09-18T04:53:12;20.60;99.90
51035;DHT22;37062;52.546;13.230;2023-09-18T04:55:42;20.70;99.90
51035;DHT22;37062;52.546;13.230;2023-09-18T04:58:11;20.60;99.90
51035;DHT22;37062;52.546;13.230;2023-09-18T05:00:40;20.60;99.90
51035;DHT22;37062;52.546;13.230;2023-09-18T05:03:09;20.70;99.90
51035;DHT22;37062;52.546;13.230;2023-09-18T05:05:39;20.60;99.90
51035;DHT22;37062;52.546;13.230;2023-09-18T05:08:07;20.70;99.90
51035;DHT22;37062;52.546;13.230;2023-09-18T05:10:36;20.70;99.90
51035;DHT22;37062;52.546;13.230;2023-09-18T05:13:06;20.70;99.90
51035;DHT22;37062;52.546;13.230;2023-09-18T05:15:35;20.70;99.90
51035;DHT22;37062;52.546;13.230;2023-09-18T05:18:04;20.70;99.90
51035;DHT22;37062;52.546;13.230;2023-09-18T05:20:35;20.70;99.90
51035;DHT22;37062;52.546;13.230;2023-09-18T05:23:03;20.70;99.90
51035;DHT22;37062;52.546;13.230;2023-09-18T05:25:32;20.80;99.90
51035;DHT22;37062;52.546;13.230;2023-09-18T05:28:01;20.90;99.90
51035;DHT22;37062;52.546;13.230;2023-09-18T05:30:34;21.00;99.90
51035;DHT22;37062;52.546;13.230;2023-09-18T05:33:06;21.10;99.90
51035;DHT22;37062;52.546;13.230;2023-09-18T05:35:40;21.10;99.90
51035;DHT22;37062;52.546;13.230;2023-09-18T05:38:09;21.20;99.90
51035;DHT22;37062;52.546;13.230;2023-09-18T05:40:38;21.20;99.90
51035;DHT22;37062;52.546;13.230;2023-09-18T05:43:06;21.30;99.90
51035;DHT22;37062;52.546;13.230;2023-09-18T05:45:36;21.40;99.90
51035;DHT22;37062;52.546;13.230;2023-09-18T05:48:05;21.50;99.90
51035;DHT22;37062;52.546;13.230;2023-09-18T05:50:35;21.70;99.90
51035;DHT22;37062;52.546;13.230;2023-09-18T05:53:03;21.80;99.90
51035;DHT22;37062;52.546;13.230;2023-09-18T05:55:32;21.90;99.90
51035;DHT22;37062;52.546;13.230;2023-09-18T05:58:02;22.10;99.90
51035;DHT22;37062;52.546;13.230;2023-09-18T06:00:32;22.10;99.90
51035;DHT22;37062;52.546;13.230;2023-09-18T06:03:02;22.20;99.90
51035;DHT22;37062;52.546;13.230;2023-09-18T06:05:32;22.30;99.90
51035;DHT22;37062;52.546;13.230;2023-09-18T06:08:01;22.30;99.90
51035;DHT22;37062;52.546;13.230;2023-09-18T06:10:30;22.40;99.90
51035;DHT22;37062;52.546;13.230;2023-09-18T06:12:58;22.40;99.90
51035;DHT22;37062;52.546;13.230;2023-09-18T06:15:31;22.50;99.90
51035;DHT22;37062;52.546;13.230;2023-09-18T06:18:01;22.50;99.90
51035;DHT22;37062;52.546;13.230;2023-09-18T06:20:30;22.50;99.90
51035;DHT22;37062;52.546;13.230;2023-09-18T06:22:59;22.50;99.90
51035;DHT22;37062;52.546;13.230;2023-09-18T06:25:27;22.50;99.90
51035;DHT22;37062;52.546;13.230;2023-09-18T06:27:55;22.50;99.90
51035;DHT22;37062;52.546;13.230;2023-09-18T06:30:23;22.60;99.90
51035;DHT22;37062;52.546;13.230;2023-09-18T06:32:51;22.70;99.90
51035;DHT22;37062;52.546;13.230;2023-09-18T06:35:22;22.70;99.90
51035;DHT22;37062;52.546;13.230;2023-09-18T06:37:50;22.70;99.90
51035;DHT22;37062;52.546;13.230;2023-09-18T06:40:21;22.80;99.90
51035;DHT22;37062;52.546;13.230;2023-09-18T06:42:49;22.90;99.90
51035;DHT22;37062;52.546;13.230;2023-09-18T06:45:17;23.00;99.90
51035;DHT22;37062;52.546;13.230;2023-09-18T06:47:45;23.00;99.90
51035;DHT22;37062;52.546;13.230;2023-09-18T06:50:14;23.20;99.90
51035;DHT22;37062;52.546;13.230;2023-09-18T06:52:43;23.50;99.90
51035;DHT22;37062;52.546;13.230;2023-09-18T06:55:11;23.90;99.90
51035;DHT22;37062;52.546;13.230;2023-09-18T06:57:40;24.30;99.90
51035;DHT22;37062;52.546;13.230;2023-09-18T07:00:09;24.70;99.90
51035;DHT22;37062;52.546;13.230;2023-09-18T07:02:38;25.10;99.90
51035;DHT22;37062;52.546;13.230;2023-09-18T07:05:06;25.60;99.90
51035;DHT22;37062;52.546;13.230;2023-09-18T07:07:34;26.10;99.90
51035;DHT22;37062;52.546;13.230;2023-09-18T07:10:04;26.60;99.90
51035;DHT22;37062;52.546;13.230;2023-09-18T07:12:32;26.80;99.90
51035;DHT22;37062;52.546;13.230;2023-09-18T07:15:01;26.80;99.90
51035;DHT22;37062;52.546;13.230;2023-09-18T07:17:32;27.10;99.90
51035;DHT22;37062;52.546;13.230;2023-09-18T07:20:00;27.60;99.90
51035;DHT22;37062;52.546;13.230;2023-09-18T07:22:34;27.90;99.90
51035;DHT22;37062;52.546;13.230;2023-09-18T07:25:05;28.20;99.90
51035;DHT22;37062;52.546;13.230;2023-09-18T07:27:34;28.40;99.90
51035;DHT22;37062;52.546;13.230;2023-09-18T07:30:04;28.40;99.90
51035;DHT22;37062;52.546;13.230;2023-09-18T07:32:32;28.50;99.90
51035;DHT22;37062;52.546;13.230;2023-09-18T07:35:06;28.70;99.90
51035;DHT22;37062;52.546;13.230;2023-09-18T07:37:35;28.80;99.90
51035;DHT22;37062;52.546;13.230;2023-09-18T07:40:06;28.70;99.90
51035;DHT22;37062;52.546;13.230;2023-09-18T07:42:35;28.80;99.90
51035;DHT22;37062;52.546;13.230;2023-09-18T07:45:03;28.60;99.90
51035;DHT22;37062;52.546;13.230;2023-09-18T07:47:32;28.40;99.90
51035;DHT22;37062;52.546;13.230;2023-09-18T07:50:00;28.40;99.90
51035;DHT22;37062;52.546;13.230;2023-09-18T07:52:28;28.70;99.90
51035;DHT22;37062;52.546;13.230;2023-09-18T07:54:58;29.10;99.90
51035;DHT22;37062;52.546;13.230;2023-09-18T07:57:28;29.50;99.90
51035;DHT22;37062;52.546;13.230;2023-09-18T07:59:58;29.60;99.90
51035;DHT22;37062;52.546;13.230;2023-09-18T08:02:37;29.80;99.90
51035;DHT22;37062;52.546;13.230;2023-09-18T08:05:06;29.80;99.90
51035;DHT22;37062;52.546;13.230;2023-09-18T08:07:35;29.80;99.90
51035;DHT22;37062;52.546;13.230;2023-09-18T08:10:05;29.60;99.90
51035;DHT22;37062;52.546;13.230;2023-09-18T08:12:37;29.60;99.90
51035;DHT22;37062;52.546;13.230;2023-09-18T08:15:06;29.50;99.90
51035;DHT22;37062;52.546;13.230;2023-09-18T08:17:35;29.50;99.90
51035;DHT22;37062;52.546;13.230;2023-09-18T08:20:05;29.70;99.90
51035;DHT22;37062;52.546;13.230;2023-09-18T08:22:39;29.80;99.90
51035;DHT22;37062;52.546;13.230;2023-09-18T08:25:08;29.60;99.90
51035;DHT22;37062;52.546;13.230;2023-09-18T08:27:39;29.30;99.90
51035;DHT22;37062;52.546;13.230;2023-09-18T08:30:12;29.30;99.90
51035;DHT22;37062;52.546;13.230;2023-09-18T08:32:41;29.40;99.90
51035;DHT22;37062;52.546;13.230;2023-09-18T08:35:10;29.20;99.90
51035;DHT22;37062;52.546;13.230;2023-09-18T08:37:40;29.20;99.90
51035;DHT22;37062;52.546;13.230;2023-09-18T08:40:10;29.20;99.90
51035;DHT22;37062;52.546;13.230;2023-09-18T08:42:45;29.10;99.90
51035;DHT22;37062;52.546;13.230;2023-09-18T08:45:19;28.90;99.90
51035;DHT22;37062;52.546;13.230;2023-09-18T08:47:49;28.90;99.90
51035;DHT22;37062;52.546;13.230;2023-09-18T08:50:21;28.90;99.90
51035;DHT22;37062;52.546;13.230;2023-09-18T08:52:49;28.80;99.90
51035;DHT22;37062;52.546;13.230;2023-09-18T08:55:18;28.90;99.90
51035;DHT22;37062;52.546;13.230;2023-09-18T08:57:49;29.10;99.90
51035;DHT22;37062;52.546;13.230;2023-09-18T09:00:17;28.90;99.90
51035;DHT22;37062;52.546;13.230;2023-09-18T09:02:46;28.70;99.90
51035;DHT22;37062;52.546;13.230;2023-09-18T09:05:18;28.60;99.90
51035;DHT22;37062;52.546;13.230;2023-09-18T09:07:46;28.50;99.90
51035;DHT22;37062;52.546;13.230;2023-09-18T09:10:15;28.50;99.90
51035;DHT22;37062;52.546;13.230;2023-09-18T09:12:50;28.40;99.90
51035;DHT22;37062;52.546;13.230;2023-09-18T09:15:18;28.40;99.90
51035;DHT22;37062;52.546;13.230;2023-09-18T09:17:46;28.40;99.90
51035;DHT22;37062;52.546;13.230;2023-09-18T09:20:15;28.30;99.90
51035;DHT22;37062;52.546;13.230;2023-09-18T09:22:45;28.10;99.90
51035;DHT22;37062;52.546;13.230;2023-09-18T09:25:24;28.10;99.90
51035;DHT22;37062;52.546;13.230;2023-09-18T09:27:55;28.00;99.90
51035;DHT22;37062;52.546;13.230;2023-09-18T09:30:25;27.80;99.90
51035;DHT22;37062;52.546;13.230;2023-09-18T09:32:56;27.70;99.90
51035;DHT22;37062;52.546;13.230;2023-09-18T09:35:26;27.70;99.90
51035;DHT22;37062;52.546;13.230;2023-09-18T09:37:57;27.70;99.90
51035;DHT22;37062;52.546;13.230;2023-09-18T09:40:29;27.90;99.90
51035;DHT22;37062;52.546;13.230;2023-09-18T09:42:59;28.10;99.90
51035;DHT22;37062;52.546;13.230;2023-09-18T09:45:29;28.20;99.90
51035;DHT22;37062;52.546;13.230;2023-09-18T09:48:04;28.30;99.90
51035;DHT22;37062;52.546;13.230;2023-09-18T09:50:34;28.30;99.90
51035;DHT22;37062;52.546;13.230;2023-09-18T09:53:13;28.30;99.90
51035;DHT22;37062;52.546;13.230;2023-09-18T09:55:42;28.50;99.90
51035;DHT22;37062;52.546;13.230;2023-09-18T09:58:12;28.50;99.90
51035;DHT22;37062;52.546;13.230;2023-09-18T10:00:43;28.40;99.90
51035;DHT22;37062;52.546;13.230;2023-09-18T10:03:16;28.50;99.90
51035;DHT22;37062;52.546;13.230;2023-09-18T10:05:47;28.50;99.90
51035;DHT22;37062;52.546;13.230;2023-09-18T10:08:17;28.50;99.90
51035;DHT22;37062;52.546;13.230;2023-09-18T10:10:48;28.50;99.90
51035;DHT22;37062;52.546;13.230;2023-09-18T10:13:20;28.40;99.90
51035;DHT22;37062;52.546;13.230;2023-09-18T10:15:50;28.30;99.90
51035;DHT22;37062;52.546;13.230;2023-09-18T10:18:26;28.30;99.90
51035;DHT22;37062;52.546;13.230;2023-09-18T10:21:03;28.30;99.90
51035;DHT22;37062;52.546;13.230;2023-09-18T10:23:46;28.40;99.90
51035;DHT22;37062;52.546;13.230;2023-09-18T10:26:23;28.40;99.90
51035;DHT22;37062;52.546;13.230;2023-09-18T10:28:54;28.40;99.90
51035;DHT22;37062;52.546;13.230;2023-09-18T10:31:26;28.40;99.90
51035;DHT22;37062;52.546;13.230;2023-09-18T10:33:56;28.60;99.90
51035;DHT22;37062;52.546;13.230;2023-09-18T10:36:25;28.60;99.90
51035;DHT22;37062;52.546;13.230;2023-09-18T10:38:55;28.70;99.90
51035;DHT22;37062;52.546;13.230;2023-09-18T10:41:26;28.80;99.90
51035;DHT22;37062;52.546;13.230;2023-09-18T10:43:56;28.70;99.90
51035;DHT22;37062;52.546;13.230;2023-09-18T10:46:26;28.70;99.90
51035;DHT22;37062;52.546;13.230;2023-09-18T10:48:55;28.80;99.90
51035;DHT22;37062;52.546;13.230;2023-09-18T10:51:25;28.90;99.90
51035;DHT22;37062;52.546;13.230;2023-09-18T10:53:55;29.00;99.90
51035;DHT22;37062;52.546;13.230;2023-09-18T10:56:25;28.90;99.90
51035;DHT22;37062;52.546;13.230;2023-09-18T10:59:00;28.90;99.90
51035;DHT22;37062;52.546;13.230;2023-09-18T11:01:30;28.80;99.90
51035;DHT22;37062;52.546;13.230;2023-09-18T11:04:01;28.60;99.90
51035;DHT22;37062;52.546;13.230;2023-09-18T11:06:30;28.60;99.90
51035;DHT22;37062;52.546;13.230;2023-09-18T11:09:20;28.60;99.90
51035;DHT22;37062;52.546;13.230;2023-09-18T11:11:52;28.60;99.90
51035;DHT22;37062;52.546;13.230;2023-09-18T11:14:44;28.60;99.90
51035;DHT22;37062;52.546;13.230;2023-09-18T11:17:29;28.60;99.90
51035;DHT22;37062;52.546;13.230;2023-09-18T11:20:03;28.60;99.90
51035;DHT22;37062;52.546;13.230;2023-09-18T11:22:33;28.60;99.90
51035;DHT22;37062;52.546;13.230;2023-09-18T11:25:28;28.60;99.90
51035;DHT22;37062;52.546;13.230;2023-09-18T11:27:57;28.60;99.90
51035;DHT22;37062;52.546;13.230;2023-09-18T11:30:27;28.70;99.90
51035;DHT22;37062;52.546;13.230;2023-09-18T11:32:56;28.70;99.90
51035;DHT22;37062;52.546;13.230;2023-09-18T11:35:25;28.60;99.90
51035;DHT22;37062;52.546;13.230;2023-09-18T11:38:04;28.70;99.90
51035;DHT22;37062;52.546;13.230;2023-09-18T11:40:34;28.70;99.90
51035;DHT22;37062;52.546;13.230;2023-09-18T11:43:22;28.60;99.90
51035;DHT22;37062;52.546;13.230;2023-09-18T11:45:54;28.60;99.90
51035;DHT22;37062;52.546;13.230;2023-09-18T11:48:24;28.60;99.90
51035;DHT22;37062;52.546;13.230;2023-09-18T11:50:57;28.50;99.90
51035;DHT22;37062;52.546;13.230;2023-09-18T11:53:27;28.40;99.90
51035;DHT22;37062;52.546;13.230;2023-09-18T11:55:56;28.40;99.90
51035;DHT22;37062;52.546;13.230;2023-09-18T11:58:24;28.30;99.90
51035;DHT22;37062;52.546;13.230;2023-09-18T12:00:54;28.20;99.90
51035;DHT22;37062;52.546;13.230;2023-09-18T12:03:23;28.20;99.90
51035;DHT22;37062;52.546;13.230;2023-09-18T12:05:56;28.10;99.90
51035;DHT22;37062;52.546;13.230;2023-09-18T12:08:25;28.20;99.90
51035;DHT22;37062;52.546;13.230;2023-09-18T12:10:54;28.20;99.90
51035;DHT22;37062;52.546;13.230;2023-09-18T12:13:24;28.30;99.90
51035;DHT22;37062;52.546;13.230;2023-09-18T12:15:58;28.40;99.90
51035;DHT22;37062;52.546;13.230;2023-09-18T12:18:29;28.50;99.90
51035;DHT22;37062;52.546;13.230;2023-09-18T12:20:57;28.50;99.90
51035;DHT22;37062;52.546;13.230;2023-09-18T12:23:26;28.50;99.90
51035;DHT22;37062;52.546;13.230;2023-09-18T12:26:00;28.40;99.90
51035;DHT22;37062;52.546;13.230;2023-09-18T12:28:29;28.40;99.90
51035;DHT22;37062;52.546;13.230;2023-09-18T12:30:59;28.50;99.90
51035;DHT22;37062;52.546;13.230;2023-09-18T12:33:34;28.60;99.90
51035;DHT22;37062;52.546;13.230;2023-09-18T12:36:04;28.70;99.90
51035;DHT22;37062;52.546;13.230;2023-09-18T12:38:33;28.70;99.90
51035;DHT22;37062;52.546;13.230;2023-09-18T12:41:02;28.80;99.90
51035;DHT22;37062;52.546;13.230;2023-09-18T12:43:38;28.80;99.90
51035;DHT22;37062;52.546;13.230;2023-09-18T12:46:09;28.70;99.90
51035;DHT22;37062;52.546;13.230;2023-09-18T12:48:38;28.70;99.90
51035;DHT22;37062;52.546;13.230;2023-09-18T12:51:12;28.60;99.90
51035;DHT22;37062;52.546;13.230;2023-09-18T12:53:41;28.70;99.90
51035;DHT22;37062;52.546;13.230;2023-09-18T12:56:11;28.80;99.90
51035;DHT22;37062;52.546;13.230;2023-09-18T12:58:41;28.70;99.90
51035;DHT22;37062;52.546;13.230;2023-09-18T13:01:31;28.70;99.90
51035;DHT22;37062;52.546;13.230;2023-09-18T13:03:59;28.60;99.90
51035;DHT22;37062;52.546;13.230;2023-09-18T13:06:33;28.60;99.90
51035;DHT22;37062;52.546;13.230;2023-09-18T13:09:15;28.50;99.90
51035;DHT22;37062;52.546;13.230;2023-09-18T13:11:53;28.50;99.90
51035;DHT22;37062;52.546;13.230;2023-09-18T13:14:22;28.50;99.90
51035;DHT22;37062;52.546;13.230;2023-09-18T13:16:52;28.60;99.90
51035;DHT22;37062;52.546;13.230;2023-09-18T13:19:20;28.60;99.90
51035;DHT22;37062;52.546;13.230;2023-09-18T13:21:49;28.60;99.90
51035;DHT22;37062;52.546;13.230;2023-09-18T13:24:29;28.60;99.90
51035;DHT22;37062;52.546;13.230;2023-09-18T13:26:58;28.60;99.90
51035;DHT22;37062;52.546;13.230;2023-09-18T13:29:27;28.50;99.90
51035;DHT22;37062;52.546;13.230;2023-09-18T13:31:57;28.60;99.90
51035;DHT22;37062;52.546;13.230;2023-09-18T13:34:27;28.50;99.90
51035;DHT22;37062;52.546;13.230;2023-09-18T13:36:57;28.50;99.90
51035;DHT22;37062;52.546;13.230;2023-09-18T13:39:25;28.50;99.90
51035;DHT22;37062;52.546;13.230;2023-09-18T13:41:54;28.50;99.90
51035;DHT22;37062;52.546;13.230;2023-09-18T13:44:23;28.40;99.90
51035;DHT22;37062;52.546;13.230;2023-09-18T13:46:51;28.40;99.90
51035;DHT22;37062;52.546;13.230;2023-09-18T13:49:21;28.30;99.90
51035;DHT22;37062;52.546;13.230;2023-09-18T13:51:53;28.20;99.90
51035;DHT22;37062;52.546;13.230;2023-09-18T13:54:23;28.10;99.90
51035;DHT22;37062;52.546;13.230;2023-09-18T13:56:51;28.10;99.90
51035;DHT22;37062;52.546;13.230;2023-09-18T13:59:24;27.90;99.90
51035;DHT22;37062;52.546;13.230;2023-09-18T14:01:52;27.80;99.90
51035;DHT22;37062;52.546;13.230;2023-09-18T14:04:22;27.90;99.90
51035;DHT22;37062;52.546;13.230;2023-09-18T14:06:51;27.90;99.90
51035;DHT22;37062;52.546;13.230;2023-09-18T14:09:19;28.00;99.90
51035;DHT22;37062;52.546;13.230;2023-09-18T14:11:48;28.00;99.90
51035;DHT22;37062;52.546;13.230;2023-09-18T14:14:16;28.00;99.90
51035;DHT22;37062;52.546;13.230;2023-09-18T14:16:44;28.00;99.90
51035;DHT22;37062;52.546;13.230;2023-09-18T14:19:12;28.10;99.90
51035;DHT22;37062;52.546;13.230;2023-09-18T14:21:42;28.20;99.90
51035;DHT22;37062;52.546;13.230;2023-09-18T14:24:11;28.20;99.90
51035;DHT22;37062;52.546;13.230;2023-09-18T14:26:39;28.20;99.90
51035;DHT22;37062;52.546;13.230;2023-09-18T14:29:08;28.30;99.90
51035;DHT22;37062;52.546;13.230;2023-09-18T14:31:37;28.30;99.90
51035;DHT22;37062;52.546;13.230;2023-09-18T14:34:07;28.20;99.90
51035;DHT22;37062;52.546;13.230;2023-09-18T14:36:36;28.20;99.90
51035;DHT22;37062;52.546;13.230;2023-09-18T14:39:07;28.20;99.90
51035;DHT22;37062;52.546;13.230;2023-09-18T14:41:36;28.20;99.90
51035;DHT22;37062;52.546;13.230;2023-09-18T14:44:05;28.10;99.90
51035;DHT22;37062;52.546;13.230;2023-09-18T14:46:35;28.00;99.90
51035;DHT22;37062;52.546;13.230;2023-09-18T14:49:06;28.00;99.90
51035;DHT22;37062;52.546;13.230;2023-09-18T14:51:35;28.00;99.90
51035;DHT22;37062;52.546;13.230;2023-09-18T14:54:03;28.00;99.90
51035;DHT22;37062;52.546;13.230;2023-09-18T14:56:34;28.00;99.90
51035;DHT22;37062;52.546;13.230;2023-09-18T14:59:05;27.90;99.90
51035;DHT22;37062;52.546;13.230;2023-09-18T15:01:33;27.90;99.90
51035;DHT22;37062;52.546;13.230;2023-09-18T15:04:02;27.90;99.90
51035;DHT22;37062;52.546;13.230;2023-09-18T15:06:31;28.00;99.90
51035;DHT22;37062;52.546;13.230;2023-09-18T15:09:01;28.00;99.90
51035;DHT22;37062;52.546;13.230;2023-09-18T15:11:30;28.00;99.90
51035;DHT22;37062;52.546;13.230;2023-09-18T15:13:59;28.00;99.90
51035;DHT22;37062;52.546;13.230;2023-09-18T15:16:27;28.00;99.90
51035;DHT22;37062;52.546;13.230;2023-09-18T15:18:57;27.90;99.90
51035;DHT22;37062;52.546;13.230;2023-09-18T15:21:29;27.90;99.90
51035;DHT22;37062;52.546;13.230;2023-09-18T15:23:57;27.90;99.90
51035;DHT22;37062;52.546;13.230;2023-09-18T15:26:26;27.80;99.90
51035;DHT22;37062;52.546;13.230;2023-09-18T15:28:55;27.80;99.90
51035;DHT22;37062;52.546;13.230;2023-09-18T15:31:24;27.80;99.90
51035;DHT22;37062;52.546;13.230;2023-09-18T15:33:52;27.80;99.90